Time;durP1;ratioP1;P1;durP2;ratioP2;P2;SDS_P1;SDS_P2;PMS_P1;PMS_P2;Temp;Humidity;BMP_temperature;BMP_pressure;BME280_temperature;BME280_humidity;BME280_pressure;Samples;Min_cycle;Max_cycle;Signal;HPM_P1;HPM_P2
2021/01/17 00:00:53;;;;;;;54.15;27.25;;;;;;;-1.04;87.98;100635.03;4929800;29;19942;-81
2021/01/17 00:03:21;;;;;;;54.50;25.95;;;;;;;-1.00;88.14;100630.72;4921252;29;20051;-81
2021/01/17 00:05:49;;;;;;;54.47;26.85;;;;;;;-1.02;88.07;100632.44;4904937;29;20052;-81
2021/01/17 00:08:19;;;;;;;56.33;28.23;;;;;;;-1.01;87.95;100628.97;4919221;29;20044;-81
2021/01/17 00:10:47;;;;;;;53.28;26.92;;;;;;;-1.03;87.64;100625.50;4919042;29;20047;-81
2021/01/17 00:13:15;;;;;;;54.95;27.73;;;;;;;-1.03;88.09;100615.97;4918989;29;20052;-82
2021/01/17 00:15:41;;;;;;;52.92;27.55;;;;;;;-1.05;87.64;100612.50;4921515;29;20194;-81
2021/01/17 00:18:08;;;;;;;56.92;27.35;;;;;;;-1.13;87.91;100599.50;4919466;29;20591;-82
2021/01/17 00:20:36;;;;;;;52.97;26.42;;;;;;;-1.11;88.35;100599.50;4911247;29;20044;-82
2021/01/17 00:23:06;;;;;;;56.58;27.48;;;;;;;-1.09;88.08;100596.00;4931106;29;20044;-81
2021/01/17 00:25:34;;;;;;;57.75;28.23;;;;;;;-1.09;87.92;100598.63;4917987;29;20056;-81
2021/01/17 00:28:01;;;;;;;54.17;26.83;;;;;;;-1.14;87.41;100586.50;4934725;29;20056;-82
2021/01/17 00:30:32;;;;;;;55.85;26.65;;;;;;;-1.14;87.55;100589.09;4935535;29;20053;-82
2021/01/17 00:33:00;;;;;;;52.67;26.98;;;;;;;-1.15;87.57;100587.34;4906665;29;20095;-81
2021/01/17 00:35:30;;;;;;;55.72;27.67;;;;;;;-1.16;87.92;100581.28;4917813;29;20786;-81
2021/01/17 00:37:58;;;;;;;56.92;27.63;;;;;;;-1.15;87.57;100585.63;4901658;29;20048;-81
2021/01/17 00:40:26;;;;;;;54.10;26.52;;;;;;;-1.13;88.11;100583.91;4918451;29;20052;-81
2021/01/17 00:42:54;;;;;;;61.92;28.90;;;;;;;-1.14;88.27;100587.34;4911831;29;20059;-81
2021/01/17 00:45:23;;;;;;;56.15;28.33;;;;;;;-1.18;88.11;100584.72;4914626;29;20048;-81
2021/01/17 00:47:50;;;;;;;59.05;27.73;;;;;;;-1.07;88.72;100580.44;4917604;29;20065;-81
2021/01/17 00:50:19;;;;;;;57.97;28.02;;;;;;;-1.12;88.08;100580.44;4920819;29;20043;-82
2021/01/17 00:52:56;;;;;;;57.80;27.73;;;;;;;-1.15;88.11;100566.56;4924713;29;20048;-82
2021/01/17 00:55:23;;;;;;;66.60;29.38;;;;;;;-1.15;88.56;100582.16;4919396;29;20067;-82
2021/01/17 00:57:49;;;;;;;60.65;29.00;;;;;;;-1.21;88.59;100577.78;4916974;29;20052;-82
2021/01/17 01:00:20;;;;;;;55.88;28.23;;;;;;;-1.18;89.08;100571.75;4920501;29;20460;-82
2021/01/17 01:02:47;;;;;;;60.03;28.52;;;;;;;-1.20;89.08;100571.72;4929506;29;20099;-81
2021/01/17 01:05:15;;;;;;;59.17;29.33;;;;;;;-1.20;89.15;100566.53;4925144;29;20060;-81
2021/01/17 01:07:44;;;;;;;59.03;30.08;;;;;;;-1.18;89.49;100564.81;4915061;29;20079;-82
2021/01/17 01:10:13;;;;;;;58.60;28.80;;;;;;;-1.23;89.72;100556.13;4920345;29;20177;-82
2021/01/17 01:12:39;;;;;;;57.80;29.08;;;;;;;-1.17;89.04;100560.50;4914638;29;20731;-82
2021/01/17 01:15:07;;;;;;;56.05;28.42;;;;;;;-1.15;89.16;100557.03;4902160;29;20059;-81
2021/01/17 01:17:34;;;;;;;60.17;29.55;;;;;;;-1.17;89.05;100550.97;4902211;29;20056;-82
2021/01/17 01:20:01;;;;;;;61.90;28.83;;;;;;;-1.23;89.02;100547.47;4920499;29;20052;-82
2021/01/17 01:22:28;;;;;;;59.95;29.02;;;;;;;-1.20;89.57;100550.94;4930268;29;20135;-82
2021/01/17 01:24:55;;;;;;;54.97;28.35;;;;;;;-1.21;89.16;100541.41;4919676;29;20080;-81
2021/01/17 01:27:21;;;;;;;56.22;27.90;;;;;;;-1.19;89.24;100541.41;4911953;29;20735;-82
2021/01/17 01:29:47;;;;;;;56.40;28.77;;;;;;;-1.25;89.52;100536.19;4923360;29;20402;-81
2021/01/17 01:32:14;;;;;;;59.15;28.92;;;;;;;-1.29;89.22;100530.16;4898973;29;20044;-82
2021/01/17 01:34:40;;;;;;;56.17;28.38;;;;;;;-1.28;89.69;100531.88;4916950;29;20434;-82
2021/01/17 01:37:07;;;;;;;60.13;29.15;;;;;;;-1.26;89.50;100521.50;4903516;29;20171;-82
2021/01/17 01:39:34;;;;;;;58.10;28.60;;;;;;;-1.28;89.44;100521.50;4920645;29;20131;-82
2021/01/17 01:42:07;;;;;;;56.40;28.05;;;;;;;-1.33;89.39;100517.13;4917089;29;20048;-81
2021/01/17 01:44:34;;;;;;;60.25;28.52;;;;;;;-1.33;89.95;100511.94;4917844;29;20063;-82
2021/01/17 01:47:02;;;;;;;56.03;27.30;;;;;;;-1.36;89.92;100511.94;4901200;29;20558;-81
2021/01/17 01:49:30;;;;;;;61.72;28.45;;;;;;;-1.33;89.71;100506.75;4916191;29;20813;-81
2021/01/17 01:52:00;;;;;;;58.03;28.70;;;;;;;-1.32;89.39;100514.53;4918272;29;20047;-83
2021/01/17 01:54:26;;;;;;;54.33;26.63;;;;;;;-1.30;89.34;100510.22;4917196;29;20087;-83
2021/01/17 01:56:53;;;;;;;55.55;27.38;;;;;;;-1.23;89.14;100505.91;4917291;29;20103;-82
2021/01/17 01:59:21;;;;;;;55.40;27.80;;;;;;;-1.20;89.10;100504.19;4914370;29;20074;-83
2021/01/17 02:01:53;;;;;;;54.42;27.20;;;;;;;-1.20;89.11;100501.59;4920545;29;20056;-82
2021/01/17 02:04:20;;;;;;;59.88;28.25;;;;;;;-1.20;88.94;100503.31;4919104;29;20090;-83
2021/01/17 02:07:14;;;;;;;55.90;27.10;;;;;;;-1.13;89.13;100502.47;4919631;29;20048;-82
2021/01/17 02:09:41;;;;;;;52.08;26.50;;;;;;;-1.11;88.10;100499.03;4922022;29;20072;-83
2021/01/17 02:12:38;;;;;;;55.20;26.42;;;;;;;-1.12;88.46;100499.88;4911911;29;20040;-82
2021/01/17 02:15:27;;;;;;;52.65;27.05;;;;;;;-1.19;87.77;100492.91;4908473;29;20059;-82
2021/01/17 02:17:55;;;;;;;54.63;26.33;;;;;;;-1.19;87.86;100489.47;4900217;29;20044;-83
2021/01/17 02:20:24;;;;;;;55.88;26.90;;;;;;;-1.22;88.60;100492.91;4919357;29;20056;-82
2021/01/17 02:23:07;;;;;;;59.85;27.35;;;;;;;-1.20;88.35;100485.13;4925821;29;20610;-82
2021/01/17 02:25:35;;;;;;;59.65;27.98;;;;;;;-1.17;88.58;100478.22;4922118;29;20052;-82
2021/01/17 02:28:14;;;;;;;56.22;27.15;;;;;;;-1.15;88.72;100486.00;4934707;29;20115;-82
2021/01/17 02:30:46;;;;;;;56.15;28.33;;;;;;;-1.17;88.33;100473.00;4908870;29;20131;-82
2021/01/17 02:33:22;;;;;;;53.10;26.77;;;;;;;-1.12;88.38;100486.88;4904251;29;20052;-82
2021/01/17 02:35:53;;;;;;;53.38;27.42;;;;;;;-1.09;88.63;100476.47;4921406;29;20059;-82
2021/01/17 02:38:26;;;;;;;52.17;26.15;;;;;;;-1.07;88.48;100479.94;4914669;29;20581;-83
2021/01/17 02:41:18;;;;;;;51.65;27.60;;;;;;;-1.08;88.77;100475.59;4915579;29;20131;-82
2021/01/17 02:43:45;;;;;;;54.53;26.55;;;;;;;-1.13;88.51;100468.69;4914631;29;20071;-81
2021/01/17 02:46:13;;;;;;;55.17;27.33;;;;;;;-1.09;88.61;100473.88;4915801;29;20172;-82
2021/01/17 02:48:39;;;;;;;55.30;26.23;;;;;;;-1.07;88.17;100473.88;4916413;29;20147;-82
2021/01/17 02:51:06;;;;;;;57.85;27.85;;;;;;;-1.03;88.30;100474.75;4920164;29;20052;-82
2021/01/17 02:53:41;;;;;;;58.33;27.27;;;;;;;-0.98;88.46;100473.91;4897180;29;20052;-83
2021/01/17 02:56:15;;;;;;;53.60;26.67;;;;;;;-0.97;88.35;100474.78;4916340;29;20056;-82
2021/01/17 02:58:45;;;;;;;56.60;27.92;;;;;;;-0.95;88.06;100479.13;4914554;29;20044;-82
2021/01/17 03:01:17;;;;;;;;;;;;;;;-0.91;87.94;100472.16;4917750;29;20052;-82
2021/01/17 03:03:47;;;;;;;51.92;24.25;;;;;;;-0.96;87.49;100471.31;4915029;29;20009;-82
2021/01/17 03:06:14;;;;;;;56.30;26.90;;;;;;;-0.99;87.48;100468.72;4913199;29;20446;-82
2021/01/17 03:08:41;;;;;;;53.00;26.70;;;;;;;-1.08;87.62;100453.94;4917316;29;20062;-82
2021/01/17 03:11:08;;;;;;;53.13;26.92;;;;;;;-1.07;87.74;100464.34;4920844;29;20080;-82
2021/01/17 03:13:39;;;;;;;55.60;28.10;;;;;;;-1.02;88.16;100473.91;4906240;29;20056;-82
2021/01/17 03:16:06;;;;;;;55.70;26.88;;;;;;;-0.95;88.40;100473.06;4898589;29;20454;-82
2021/01/17 03:18:33;;;;;;;56.20;27.45;;;;;;;-0.86;88.38;100468.72;4910320;29;20128;-82
2021/01/17 03:21:00;;;;;;;57.45;28.58;;;;;;;-0.76;86.88;100474.75;4902428;29;20398;-81
2021/01/17 03:23:26;;;;;;;53.63;27.13;;;;;;;-0.77;86.77;100467.84;4886903;29;20056;-82
2021/01/17 03:25:53;;;;;;;58.83;27.52;;;;;;;-0.75;86.65;100477.38;4915300;29;20124;-82
2021/01/17 03:28:19;;;;;;;59.40;29.02;;;;;;;-0.83;86.81;100468.72;4905692;29;20059;-82
2021/01/17 03:30:48;;;;;;;53.20;26.95;;;;;;;-0.89;86.67;100465.22;4918155;29;20489;-82
2021/01/17 03:33:15;;;;;;;63.15;29.60;;;;;;;-0.96;87.15;100464.38;4913124;29;20044;-82
2021/01/17 03:35:41;;;;;;;62.47;30.00;;;;;;;-1.03;87.71;100459.16;4898579;29;20153;-82
2021/01/17 03:38:08;;;;;;;63.05;29.23;;;;;;;-1.06;87.91;100465.22;4903524;29;20075;-83
2021/01/17 03:40:34;;;;;;;60.90;29.50;;;;;;;-1.09;88.41;100468.69;4919517;29;20067;-82
2021/01/17 03:43:01;;;;;;;61.80;29.63;;;;;;;-1.05;87.64;100461.75;4915019;29;20616;-82
2021/01/17 03:45:27;;;;;;;57.80;28.20;;;;;;;-0.97;87.89;100464.38;4927231;29;20087;-82
2021/01/17 03:47:54;;;;;;;59.97;30.23;;;;;;;-0.93;87.87;100466.09;4914404;29;20116;-82
2021/01/17 03:50:21;;;;;;;58.53;29.17;;;;;;;-0.85;87.28;100459.19;4916389;29;20186;-80
2021/01/17 03:52:47;;;;;;;58.42;28.50;;;;;;;-0.88;87.43;100456.56;4897626;29;20147;-81
2021/01/17 03:55:14;;;;;;;61.08;29.58;;;;;;;-0.98;87.20;100458.31;4919381;29;20048;-81
2021/01/17 03:57:40;;;;;;;63.53;30.92;;;;;;;-0.98;87.64;100454.84;4903595;29;20116;-81
2021/01/17 04:00:08;;;;;;;57.42;28.52;;;;;;;-0.90;87.47;100460.91;4934866;29;20080;-80
2021/01/17 04:02:34;;;;;;;56.97;28.10;;;;;;;-0.78;87.14;100473.91;4933504;29;20131;-80
2021/01/17 04:05:00;;;;;;;59.05;28.02;;;;;;;-0.81;86.85;100467.00;4934466;29;20056;-80
2021/01/17 04:07:28;;;;;;;62.20;29.90;;;;;;;-0.77;86.75;100473.91;4906532;29;20028;-80
2021/01/17 04:09:55;;;;;;;58.83;29.05;;;;;;;-0.73;86.69;100473.03;4933088;29;20055;-81
2021/01/17 04:12:21;;;;;;;61.58;28.98;;;;;;;-0.78;86.20;100479.09;4929427;29;20112;-81
2021/01/17 04:14:48;;;;;;;60.28;28.90;;;;;;;-0.85;86.85;100477.38;4920078;29;20068;-81
2021/01/17 04:17:15;;;;;;;59.20;29.17;;;;;;;-0.85;87.01;100472.19;4919193;29;20056;-80
2021/01/17 04:19:41;;;;;;;61.50;29.60;;;;;;;-0.86;87.12;100478.25;4919661;29;20131;-81
2021/01/17 04:22:08;;;;;;;62.35;30.38;;;;;;;-0.91;87.60;100467.84;4905704;29;20078;-80
2021/01/17 04:24:34;;;;;;;67.32;30.80;;;;;;;-0.93;87.70;100468.69;4921334;29;20070;-81
2021/01/17 04:27:02;;;;;;;63.20;31.13;;;;;;;-0.95;88.18;100473.06;4904843;29;20287;-81
2021/01/17 04:29:29;;;;;;;62.58;29.17;;;;;;;-0.85;88.37;100473.03;4900943;29;20048;-80
2021/01/17 04:31:57;;;;;;;57.95;29.50;;;;;;;-0.84;87.93;100455.72;4921039;29;20040;-80
2021/01/17 04:34:24;;;;;;;58.55;29.85;;;;;;;-0.85;87.49;100460.03;4922133;29;20111;-80
2021/01/17 04:36:50;;;;;;;59.10;28.95;;;;;;;-0.89;87.38;100454.84;4911823;29;20053;-81
2021/01/17 04:39:17;;;;;;;58.33;28.83;;;;;;;-0.92;87.32;100453.09;4927490;29;20040;-80
2021/01/17 04:41:45;;;;;;;63.40;29.42;;;;;;;-0.93;87.84;100461.75;4932995;29;20104;-80
2021/01/17 04:44:19;;;;;;;61.17;29.67;;;;;;;-0.89;88.19;100460.03;4915300;29;20465;-82
2021/01/17 04:46:49;;;;;;;63.42;29.67;;;;;;;-0.88;87.83;100456.56;4912286;29;20643;-81
2021/01/17 04:49:18;;;;;;;64.25;29.15;;;;;;;-0.95;88.21;100455.72;4914355;29;20090;-82
2021/01/17 04:51:50;;;;;;;61.83;29.65;;;;;;;-0.98;88.18;100460.03;4909577;29;20129;-81
2021/01/17 04:54:17;;;;;;;60.80;29.00;;;;;;;-1.00;88.30;100459.16;4915918;29;20053;-82
2021/01/17 04:56:52;;;;;;;62.58;29.08;;;;;;;-0.98;88.60;100457.44;4917361;29;20108;-81
2021/01/17 04:59:24;;;;;;;63.03;29.20;;;;;;;-0.95;88.26;100467.84;4920062;29;20058;-81
2021/01/17 05:02:12;;;;;;;67.30;30.25;;;;;;;-0.97;88.61;100469.56;4915712;29;20051;-81
2021/01/17 05:04:55;;;;;;;61.47;28.98;;;;;;;-1.01;88.12;100473.91;4894234;29;20139;-81
2021/01/17 05:07:24;;;;;;;66.88;29.95;;;;;;;-0.91;88.74;100475.63;4921087;29;20067;-81
2021/01/17 05:10:11;;;;;;;63.13;29.38;;;;;;;-0.80;88.10;100473.06;4918390;29;20056;-82
2021/01/17 05:12:51;;;;;;;60.88;28.45;;;;;;;-0.71;87.40;100475.66;4916430;29;20048;-82
2021/01/17 05:15:22;;;;;;;63.65;30.23;;;;;;;-0.64;87.39;100479.13;4899147;29;20063;-82
2021/01/17 05:17:54;;;;;;;63.30;29.50;;;;;;;-0.63;86.66;100471.28;4911315;29;20052;-82
2021/01/17 05:20:21;;;;;;;64.88;30.02;;;;;;;-0.60;86.56;100475.63;4916929;29;20044;-82
2021/01/17 05:22:48;;;;;;;59.65;29.45;;;;;;;-0.66;86.20;100479.13;4917014;29;20059;-82
2021/01/17 05:25:17;;;;;;;66.00;31.00;;;;;;;-0.75;86.73;100479.97;4919918;29;20048;-81
2021/01/17 05:27:48;;;;;;;76.20;30.77;;;;;;;-0.78;87.26;100479.09;4927828;29;20066;-81
2021/01/17 05:30:15;;;;;;;64.70;30.95;;;;;;;-0.81;87.71;100477.38;4912555;29;20050;-81
2021/01/17 05:32:43;;;;;;;66.55;30.63;;;;;;;-0.80;87.61;100473.06;4903052;29;20087;-80
2021/01/17 05:35:10;;;;;;;65.95;31.27;;;;;;;-0.79;88.32;100480.00;4919882;29;20056;-81
2021/01/17 05:37:48;;;;;;;72.00;31.02;;;;;;;-0.87;87.97;100466.09;4918566;29;20067;-81
2021/01/17 05:40:14;;;;;;;65.85;31.20;;;;;;;-0.86;88.17;100475.63;4914863;29;20139;-81
2021/01/17 05:42:43;;;;;;;65.55;31.02;;;;;;;-0.90;88.83;100485.16;4914078;29;20547;-81
2021/01/17 05:45:10;;;;;;;65.22;30.08;;;;;;;-0.94;89.05;100478.22;4915341;29;20056;-81
2021/01/17 05:47:36;;;;;;;66.55;30.27;;;;;;;-0.97;88.86;100479.97;4925807;29;20032;-82
2021/01/17 05:50:09;;;;;;;68.25;30.30;;;;;;;-0.96;89.17;100487.78;4914363;29;20097;-82
2021/01/17 05:52:36;;;;;;;71.18;31.20;;;;;;;-0.92;89.29;100488.63;4937314;29;20076;-82
2021/01/17 05:55:03;;;;;;;69.95;31.70;;;;;;;-0.91;89.19;100485.16;4934536;29;20047;-82
2021/01/17 05:57:32;;;;;;;67.50;31.13;;;;;;;-0.92;89.67;100494.69;4934546;29;20136;-82
2021/01/17 06:00:00;;;;;;;65.65;31.58;;;;;;;-0.93;89.54;100492.09;4939816;29;20096;-81
2021/01/17 06:02:28;;;;;;;71.28;32.22;;;;;;;-0.91;89.89;100490.34;4921477;29;20048;-82
2021/01/17 06:04:56;;;;;;;70.18;31.75;;;;;;;-0.87;89.93;100502.50;4937671;29;20020;-82
2021/01/17 06:07:25;;;;;;;66.63;30.45;;;;;;;-0.92;90.22;100497.28;4922505;29;20060;-81
2021/01/17 06:10:02;;;;;;;76.18;33.60;;;;;;;-0.99;90.05;100487.78;4932933;29;20052;-82
2021/01/17 06:12:36;;;;;;;70.05;32.28;;;;;;;-0.88;89.91;100501.63;4922549;29;20115;-82
2021/01/17 06:15:11;;;;;;;66.97;31.45;;;;;;;-0.91;90.67;100495.56;4923076;29;20107;-82
2021/01/17 06:17:45;;;;;;;61.90;29.52;;;;;;;-0.89;90.49;100499.03;4918735;29;20056;-82
2021/01/17 06:20:25;;;;;;;66.72;30.00;;;;;;;-0.89;90.53;100496.44;4913570;29;20057;-81
2021/01/17 06:22:59;;;;;;;65.75;29.80;;;;;;;-0.81;90.73;100497.31;4899018;29;20076;-81
2021/01/17 06:26:01;;;;;;;67.05;30.95;;;;;;;-0.79;90.69;100496.44;4900597;29;20490;-82
2021/01/17 06:28:41;;;;;;;68.77;31.13;;;;;;;-0.88;90.65;100485.16;4915718;29;20508;-80
2021/01/17 06:31:27;;;;;;;66.50;29.95;;;;;;;-0.82;91.02;100487.78;4916433;29;20063;-82
2021/01/17 06:34:10;;;;;;;63.00;29.38;;;;;;;-0.82;90.88;100479.97;4915328;29;20418;-81
2021/01/17 06:36:37;;;;;;;;;;;;;;;-0.73;91.25;100490.38;4916605;29;20124;-81
2021/01/17 06:39:21;;;;;;;60.92;27.48;;;;;;;-0.77;90.72;100489.50;4918425;29;19947;-81
2021/01/17 06:41:53;;;;;;;60.50;27.73;;;;;;;-0.77;91.32;100476.50;4917263;29;20405;-81
2021/01/17 06:44:27;;;;;;;62.25;29.38;;;;;;;-0.75;91.22;100479.97;4898644;29;20542;-80
2021/01/17 06:46:54;;;;;;;59.03;29.13;;;;;;;-0.78;91.37;100471.28;4898636;29;20091;-80
2021/01/17 06:49:27;;;;;;;59.65;29.20;;;;;;;-0.77;91.20;100479.09;4914536;29;20116;-81
2021/01/17 06:51:54;;;;;;;60.38;28.40;;;;;;;-0.75;91.34;100479.09;4912677;29;20044;-80
2021/01/17 06:54:45;;;;;;;58.55;28.13;;;;;;;-0.69;91.86;100473.03;4899789;29;20060;-81
2021/01/17 06:57:12;;;;;;;58.40;28.02;;;;;;;-0.68;91.47;100478.25;4916762;29;21107;-80
2021/01/17 06:59:48;;;;;;;56.60;28.15;;;;;;;-0.76;91.20;100487.75;4901938;29;20048;-80
2021/01/17 07:02:15;;;;;;;54.72;26.52;;;;;;;-0.78;90.97;100492.09;4914870;29;20442;-80
2021/01/17 07:05:14;;;;;;;58.97;27.98;;;;;;;-0.79;91.02;100495.59;4916301;29;20667;-80
2021/01/17 07:08:04;;;;;;;59.17;29.15;;;;;;;-0.79;91.16;100496.44;4917096;29;20063;-81
2021/01/17 07:10:41;;;;;;;54.25;27.33;;;;;;;-0.67;91.51;100511.19;4913682;29;20055;-80
2021/01/17 07:13:17;;;;;;;56.65;27.65;;;;;;;-0.72;91.26;100498.19;4919387;29;20094;-82
2021/01/17 07:15:44;;;;;;;57.35;28.17;;;;;;;-0.61;90.81;100505.97;4912371;29;20107;-83
2021/01/17 07:18:16;;;;;;;50.13;25.67;;;;;;;-0.50;89.66;100516.41;4899123;29;20098;-82
2021/01/17 07:20:43;;;;;;;54.22;26.85;;;;;;;-0.55;88.89;100519.00;4900284;29;20063;-82
2021/01/17 07:23:12;;;;;;;53.78;25.63;;;;;;;-0.63;88.99;100518.09;4915480;29;20047;-83
2021/01/17 07:25:43;;;;;;;54.33;27.00;;;;;;;-0.62;89.31;100517.25;4915967;29;20052;-82
2021/01/17 07:28:13;;;;;;;52.78;25.80;;;;;;;-0.66;89.67;100530.25;4903038;29;20087;-82
2021/01/17 07:30:46;;;;;;;56.53;27.80;;;;;;;-0.69;89.74;100528.53;4917262;29;20159;-82
2021/01/17 07:33:16;;;;;;;52.70;26.23;;;;;;;-0.69;89.60;100530.25;4914910;29;20055;-83
2021/01/17 07:35:45;;;;;;;55.15;26.88;;;;;;;-0.69;90.07;100535.44;4917038;29;20056;-83
2021/01/17 07:38:17;;;;;;;58.57;28.03;;;;;;;-0.61;90.08;100541.50;4922578;29;20052;-82
2021/01/17 07:40:59;;;;;;;55.45;27.20;;;;;;;-0.55;89.88;100547.59;4929607;29;20116;-83
2021/01/17 07:43:31;;;;;;;56.78;28.05;;;;;;;-0.50;90.00;100550.22;4927565;29;20075;-82
2021/01/17 07:46:03;;;;;;;53.30;26.60;;;;;;;-0.47;89.65;100545.84;4925665;29;20104;-82
2021/01/17 07:48:32;;;;;;;54.92;26.60;;;;;;;-0.48;89.13;100548.47;4899596;29;20178;-82
2021/01/17 07:51:01;;;;;;;58.05;28.70;;;;;;;-0.45;89.90;100557.13;4921482;29;20151;-83
2021/01/17 07:53:34;;;;;;;60.05;28.92;;;;;;;-0.37;89.48;100563.22;4919351;29;20051;-82
2021/01/17 07:56:09;;;;;;;56.53;28.60;;;;;;;-0.31;90.74;100562.31;4922252;29;20056;-82
2021/01/17 07:58:44;;;;;;;56.95;28.35;;;;;;;-0.31;89.79;100562.31;4927397;29;20059;-83
2021/01/17 08:01:33;;;;;;;56.80;28.95;;;;;;;-0.26;89.38;100570.13;4927175;29;20048;-83
2021/01/17 08:04:03;;;;;;;55.50;27.55;;;;;;;-0.22;88.97;100570.16;4923973;29;20056;-83
2021/01/17 08:06:35;;;;;;;54.03;27.52;;;;;;;-0.21;88.91;100573.63;4928947;29;20044;-83
2021/01/17 08:09:05;;;;;;;57.75;28.13;;;;;;;-0.16;88.78;100564.09;4929483;29;20116;-83
2021/01/17 08:11:52;;;;;;;56.58;27.58;;;;;;;-0.19;88.79;100564.94;4929084;29;20083;-82
2021/01/17 08:14:28;;;;;;;53.85;28.58;;;;;;;-0.13;88.84;100571.88;4902866;29;20116;-84
2021/01/17 08:17:15;;;;;;;56.75;27.83;;;;;;;-0.13;88.67;100579.66;4921954;29;20113;-84
2021/01/17 08:19:53;;;;;;;57.88;28.33;;;;;;;-0.20;88.22;100580.56;4922181;29;20063;-81
2021/01/17 08:22:23;;;;;;;59.10;28.95;;;;;;;-0.23;88.80;100583.16;4915827;29;20048;-82
2021/01/17 08:25:01;;;;;;;60.58;29.40;;;;;;;-0.16;89.19;100582.31;4910527;29;21046;-83
2021/01/17 08:27:38;;;;;;;59.15;29.02;;;;;;;-0.14;88.77;100586.63;4889223;29;20309;-82
2021/01/17 08:30:21;;;;;;;53.38;27.35;;;;;;;-0.10;88.21;100582.28;4926752;29;20076;-82
2021/01/17 08:32:53;;;;;;;55.92;27.65;;;;;;;-0.08;87.78;100588.34;4922580;29;20679;-83
2021/01/17 08:37:48;;;;;;;55.53;28.15;;;;;;;0.00;88.10;100590.06;4914210;29;20075;-82
2021/01/17 08:40:18;;;;;;;55.13;27.77;;;;;;;0.02;88.05;100584.88;4913296;29;20387;-83
2021/01/17 08:42:50;;;;;;;55.25;26.83;;;;;;;-0.06;87.74;100584.03;4913772;29;20052;-82
2021/01/17 08:45:19;;;;;;;56.47;28.17;;;;;;;-0.02;88.51;100580.56;4898448;29;21500;-82
2021/01/17 08:47:50;;;;;;;57.20;28.63;;;;;;;0.03;88.24;100583.13;4913489;29;20075;-83
2021/01/17 08:50:35;;;;;;;56.25;28.70;;;;;;;0.06;88.00;100590.94;4896443;29;20179;-82
2021/01/17 08:53:12;;;;;;;58.08;28.70;;;;;;;-0.05;88.23;100585.75;4914639;29;20179;-82
2021/01/17 08:55:50;;;;;;;56.88;28.77;;;;;;;-0.01;88.63;100592.69;4915195;29;20350;-82
2021/01/17 08:58:26;;;;;;;54.50;27.75;;;;;;;0.07;88.86;100603.97;4915708;29;20054;-82
2021/01/17 09:00:52;;;;;;;56.40;28.08;;;;;;;0.18;88.12;100607.41;4911574;29;21047;-82
2021/01/17 09:03:34;;;;;;;57.90;28.50;;;;;;;0.09;87.21;100604.81;4911512;29;20131;-83
2021/01/17 09:06:21;;;;;;;58.20;29.15;;;;;;;0.12;88.35;100616.97;4913029;29;20059;-83
2021/01/17 09:08:48;;;;;;;60.47;28.85;;;;;;;0.20;88.64;100621.28;4912001;29;20110;-83
2021/01/17 09:11:37;;;;;;;56.20;27.50;;;;;;;0.29;87.48;100620.44;4896054;29;20071;-82
2021/01/17 09:14:18;;;;;;;54.88;26.75;;;;;;;0.32;86.52;100625.59;4910586;29;20048;-82
2021/01/17 09:17:01;;;;;;;53.05;26.95;;;;;;;0.34;86.83;100629.94;4920987;29;20068;-83
2021/01/17 09:19:36;;;;;;;56.22;28.15;;;;;;;0.35;87.35;100633.44;4923071;29;20052;-82
2021/01/17 09:22:06;;;;;;;51.65;27.02;;;;;;;0.31;86.53;100632.59;4916107;29;20072;-81
2021/01/17 09:24:34;;;;;;;52.80;26.90;;;;;;;0.32;86.76;100636.91;4901143;29;20761;-83
2021/01/17 09:27:07;;;;;;;53.25;26.60;;;;;;;0.34;86.13;100636.91;4914781;29;20056;-82
2021/01/17 09:29:36;;;;;;;54.00;27.55;;;;;;;0.42;86.42;100644.72;4904813;29;20477;-83
2021/01/17 09:32:11;;;;;;;54.00;26.40;;;;;;;0.42;85.38;100650.78;4918216;29;20055;-82
2021/01/17 09:34:41;;;;;;;51.75;26.00;;;;;;;0.43;85.90;100646.44;4918196;29;20095;-83
2021/01/17 09:37:10;;;;;;;53.10;26.17;;;;;;;0.47;85.18;100653.41;4903579;29;20524;-83
2021/01/17 09:39:42;;;;;;;53.63;26.10;;;;;;;0.49;85.11;100655.09;4922696;29;20055;-82
2021/01/17 09:42:11;;;;;;;54.70;27.25;;;;;;;0.52;84.86;100659.44;4900012;29;20124;-82
2021/01/17 09:44:39;;;;;;;52.33;26.70;;;;;;;0.49;84.56;100667.25;4919546;29;20051;-82
2021/01/17 09:47:20;;;;;;;52.28;25.27;;;;;;;0.43;84.76;100665.56;4918511;29;20055;-82
2021/01/17 09:49:48;;;;;;;50.42;25.17;;;;;;;0.40;84.55;100669.91;4912278;29;20044;-82
2021/01/17 09:52:20;;;;;;;51.75;25.10;;;;;;;0.41;84.19;100674.25;4919792;29;20070;-82
2021/01/17 09:54:52;;;;;;;49.22;24.88;;;;;;;0.42;84.64;100681.19;4913954;29;20639;-83
2021/01/17 09:57:25;;;;;;;52.05;26.45;;;;;;;0.39;85.16;100673.38;4903654;29;20223;-82
2021/01/17 09:59:53;;;;;;;54.85;25.90;;;;;;;0.43;84.69;100677.72;4901631;29;20143;-83
2021/01/17 10:02:21;;;;;;;49.28;25.52;;;;;;;0.38;84.68;100679.44;4918270;29;20044;-83
2021/01/17 10:04:49;;;;;;;50.95;26.95;;;;;;;0.41;85.38;100675.09;4920424;29;20052;-83
2021/01/17 10:07:23;;;;;;;50.47;26.20;;;;;;;0.42;84.69;100670.75;4918310;29;20060;-83
2021/01/17 10:09:57;;;;;;;51.13;26.15;;;;;;;0.45;84.89;100684.66;4906240;29;20060;-82
2021/01/17 10:12:25;;;;;;;52.30;26.38;;;;;;;0.39;84.12;100687.25;4921696;29;20087;-81
2021/01/17 10:14:53;;;;;;;49.85;25.98;;;;;;;0.32;85.08;100683.78;4912413;29;20094;-82
2021/01/17 10:17:20;;;;;;;55.33;27.33;;;;;;;0.28;84.85;100679.47;4916692;29;20052;-82
2021/01/17 10:19:47;;;;;;;53.22;25.88;;;;;;;0.23;85.18;100675.13;4933573;29;20070;-83
2021/01/17 10:22:17;;;;;;;50.20;26.08;;;;;;;0.26;85.31;100683.81;4921880;29;20111;-83
2021/01/17 10:24:44;;;;;;;59.13;27.17;;;;;;;0.29;85.59;100681.22;4931540;29;20083;-82
2021/01/17 10:27:12;;;;;;;53.60;26.95;;;;;;;0.32;85.75;100681.19;4921590;29;20112;-83
2021/01/17 10:29:40;;;;;;;55.58;28.08;;;;;;;0.46;85.44;100682.94;4936509;29;20045;-83
2021/01/17 10:32:10;;;;;;;53.15;26.38;;;;;;;0.61;85.37;100693.31;4929650;29;20075;-83
2021/01/17 10:34:41;;;;;;;53.65;28.17;;;;;;;0.66;84.74;100684.59;4921250;29;20058;-82
2021/01/17 10:37:11;;;;;;;55.05;27.10;;;;;;;0.66;84.85;100686.34;4917650;29;20065;-83
2021/01/17 10:39:56;;;;;;;56.10;27.15;;;;;;;0.82;84.93;100681.97;4902277;29;20078;-83
2021/01/17 10:42:22;;;;;;;51.25;26.73;;;;;;;0.92;83.74;100689.78;4921889;29;20498;-83
2021/01/17 10:44:59;;;;;;;51.85;25.20;;;;;;;0.86;83.23;100684.56;4917668;29;20690;-83
2021/01/17 10:47:44;;;;;;;47.88;24.98;;;;;;;0.91;83.84;100679.34;4901555;29;20051;-83
2021/01/17 10:50:13;;;;;;;50.90;26.00;;;;;;;0.85;82.69;100685.44;4923686;29;20090;-83
2021/01/17 10:53:03;;;;;;;51.33;25.88;;;;;;;0.91;82.37;100682.81;4903313;29;20058;-84
2021/01/17 10:55:36;;;;;;;52.88;24.95;;;;;;;1.00;82.88;100685.38;4916732;29;20433;-83
2021/01/17 10:58:04;;;;;;;50.67;26.67;;;;;;;1.09;81.65;100694.06;4929336;29;20078;-82
2021/01/17 11:00:31;;;;;;;49.95;25.77;;;;;;;1.08;81.66;100687.97;4929459;29;20048;-84
2021/01/17 11:03:08;;;;;;;49.92;25.35;;;;;;;1.08;81.08;100690.59;4931288;29;20104;-82
2021/01/17 11:05:35;;;;;;;47.65;24.55;;;;;;;1.12;80.81;100691.41;4899581;29;20066;-82
2021/01/17 11:08:03;;;;;;;56.40;26.67;;;;;;;1.04;80.71;100684.50;4912155;29;20068;-82
2021/01/17 11:10:29;;;;;;;49.55;25.63;;;;;;;1.04;80.76;100694.06;4931844;28;20108;-83
2021/01/17 11:12:56;;;;;;;51.03;25.25;;;;;;;1.05;80.77;100695.81;4952103;28;20078;-84
2021/01/17 11:15:31;;;;;;;49.03;24.80;;;;;;;1.05;81.55;100696.69;4950265;28;20075;-83
2021/01/17 11:17:58;;;;;;;52.22;25.55;;;;;;;1.09;81.34;100692.31;4944935;28;20051;-83
2021/01/17 11:20:34;;;;;;;50.92;26.45;;;;;;;1.14;81.31;100694.88;4937851;29;20048;-84
2021/01/17 11:23:03;;;;;;;51.65;25.75;;;;;;;1.23;81.54;100685.31;4934562;29;20067;-83
2021/01/17 11:25:31;;;;;;;50.97;26.38;;;;;;;1.28;79.74;100683.53;4935070;29;20151;-82
2021/01/17 11:28:03;;;;;;;51.03;26.25;;;;;;;1.32;80.52;100676.56;4899305;29;20119;-83
2021/01/17 11:30:31;;;;;;;48.55;25.02;;;;;;;1.35;80.24;100682.63;4932759;29;20160;-83
2021/01/17 11:33:10;;;;;;;51.00;26.95;;;;;;;1.33;80.20;100683.50;4918580;29;20147;-83